sensor_id;sensor_type;location;lat;lon;timestamp;pressure;altitude;pressure_sealevel;temperature;humidity
16806;BME280;8520;50.102;20.010;2023-04-03T00:01:20;98524.63;;;1.62;96.88
16806;BME280;8520;50.102;20.010;2023-04-03T00:03:48;98505.41;;;1.49;97.17
16806;BME280;8520;50.102;20.010;2023-04-03T00:06:17;98523.72;;;1.45;98.14
16806;BME280;8520;50.102;20.010;2023-04-03T00:08:47;98538.75;;;1.53;98.52
16806;BME280;8520;50.102;20.010;2023-04-03T00:11:15;98530.84;;;1.12;98.90
16806;BME280;8520;50.102;20.010;2023-04-03T00:13:44;98535.38;;;1.19;99.56
16806;BME280;8520;50.102;20.010;2023-04-03T00:16:12;98519.91;;;1.16;99.84
16806;BME280;8520;50.102;20.010;2023-04-03T00:18:40;98510.88;;;0.95;100.00
16806;BME280;8520;50.102;20.010;2023-04-03T00:21:12;98517.94;;;0.89;100.00
16806;BME280;8520;50.102;20.010;2023-04-03T00:23:40;98503.75;;;0.78;100.00
16806;BME280;8520;50.102;20.010;2023-04-03T00:26:10;98499.50;;;0.77;100.00
16806;BME280;8520;50.102;20.010;2023-04-03T00:28:39;98517.41;;;0.71;100.00
16806;BME280;8520;50.102;20.010;2023-04-03T00:31:07;98525.19;;;0.99;100.00
16806;BME280;8520;50.102;20.010;2023-04-03T00:33:35;98526.44;;;0.91;100.00
16806;BME280;8520;50.102;20.010;2023-04-03T00:36:07;98526.41;;;0.95;100.00
16806;BME280;8520;50.102;20.010;2023-04-03T00:38:36;98521.63;;;0.76;100.00
16806;BME280;8520;50.102;20.010;2023-04-03T00:41:05;98533.63;;;0.78;100.00
16806;BME280;8520;50.102;20.010;2023-04-03T00:43:34;98532.53;;;1.03;100.00
16806;BME280;8520;50.102;20.010;2023-04-03T00:46:03;98519.69;;;0.76;100.00
16806;BME280;8520;50.102;20.010;2023-04-03T00:48:34;98555.84;;;0.69;100.00
16806;BME280;8520;50.102;20.010;2023-04-03T00:51:03;98517.75;;;0.73;100.00
16806;BME280;8520;50.102;20.010;2023-04-03T00:53:37;98552.22;;;0.80;100.00
16806;BME280;8520;50.102;20.010;2023-04-03T00:56:09;98534.31;;;0.86;100.00
16806;BME280;8520;50.102;20.010;2023-04-03T00:58:42;98532.25;;;0.63;100.00
16806;BME280;8520;50.102;20.010;2023-04-03T01:01:16;98542.31;;;0.66;100.00
16806;BME280;8520;50.102;20.010;2023-04-03T01:03:46;98528.94;;;0.48;100.00
16806;BME280;8520;50.102;20.010;2023-04-03T01:06:16;98555.50;;;0.67;100.00
16806;BME280;8520;50.102;20.010;2023-04-03T01:08:48;98536.25;;;0.85;100.00
16806;BME280;8520;50.102;20.010;2023-04-03T01:11:18;98516.34;;;0.65;100.00
16806;BME280;8520;50.102;20.010;2023-04-03T01:13:49;98511.00;;;0.58;100.00
16806;BME280;8520;50.102;20.010;2023-04-03T01:16:18;98550.81;;;0.68;100.00
16806;BME280;8520;50.102;20.010;2023-04-03T01:18:46;98527.78;;;0.80;100.00
16806;BME280;8520;50.102;20.010;2023-04-03T01:21:45;98531.06;;;0.64;100.00
16806;BME280;8520;50.102;20.010;2023-04-03T01:24:35;98559.19;;;0.81;100.00
16806;BME280;8520;50.102;20.010;2023-04-03T01:27:09;98541.28;;;0.56;100.00
16806;BME280;8520;50.102;20.010;2023-04-03T01:29:41;98565.78;;;0.49;100.00
16806;BME280;8520;50.102;20.010;2023-04-03T01:32:12;98571.63;;;0.48;100.00
16806;BME280;8520;50.102;20.010;2023-04-03T01:34:41;98561.91;;;0.81;100.00
16806;BME280;8520;50.102;20.010;2023-04-03T01:37:09;98560.78;;;0.44;100.00
16806;BME280;8520;50.102;20.010;2023-04-03T01:39:37;98540.66;;;0.41;100.00
16806;BME280;8520;50.102;20.010;2023-04-03T01:42:05;98546.94;;;0.69;100.00
16806;BME280;8520;50.102;20.010;2023-04-03T01:44:38;98573.19;;;0.79;100.00
16806;BME280;8520;50.102;20.010;2023-04-03T01:47:06;98566.44;;;0.91;100.00
16806;BME280;8520;50.102;20.010;2023-04-03T01:49:37;98581.88;;;0.67;100.00
16806;BME280;8520;50.102;20.010;2023-04-03T01:52:05;98581.19;;;0.59;100.00
16806;BME280;8520;50.102;20.010;2023-04-03T01:54:34;98569.16;;;0.60;100.00
16806;BME280;8520;50.102;20.010;2023-04-03T01:57:02;98578.69;;;0.72;100.00
16806;BME280;8520;50.102;20.010;2023-04-03T01:59:30;98597.25;;;0.43;100.00
16806;BME280;8520;50.102;20.010;2023-04-03T02:01:58;98577.53;;;0.73;100.00
16806;BME280;8520;50.102;20.010;2023-04-03T02:04:27;98543.25;;;0.52;100.00
16806;BME280;8520;50.102;20.010;2023-04-03T02:06:57;98589.28;;;0.63;100.00
16806;BME280;8520;50.102;20.010;2023-04-03T02:09:25;98585.22;;;0.44;100.00
16806;BME280;8520;50.102;20.010;2023-04-03T02:11:54;98569.47;;;0.66;100.00
16806;BME280;8520;50.102;20.010;2023-04-03T02:14:22;98580.72;;;0.68;100.00
16806;BME280;8520;50.102;20.010;2023-04-03T02:16:50;98585.59;;;0.80;100.00
16806;BME280;8520;50.102;20.010;2023-04-03T02:19:21;98587.25;;;0.70;100.00
16806;BME280;8520;50.102;20.010;2023-04-03T02:21:49;98585.63;;;0.42;100.00
16806;BME280;8520;50.102;20.010;2023-04-03T02:24:19;98584.50;;;0.40;100.00
16806;BME280;8520;50.102;20.010;2023-04-03T02:26:47;98568.78;;;0.58;100.00
16806;BME280;8520;50.102;20.010;2023-04-03T02:29:16;98598.56;;;0.31;100.00
16806;BME280;8520;50.102;20.010;2023-04-03T02:31:44;98577.84;;;0.45;100.00
16806;BME280;8520;50.102;20.010;2023-04-03T02:34:12;98571.88;;;0.60;100.00
16806;BME280;8520;50.102;20.010;2023-04-03T02:36:41;98586.09;;;0.71;100.00
16806;BME280;8520;50.102;20.010;2023-04-03T02:39:10;98593.81;;;0.77;100.00
16806;BME280;8520;50.102;20.010;2023-04-03T02:41:40;98571.78;;;0.67;100.00
16806;BME280;8520;50.102;20.010;2023-04-03T02:44:14;98593.94;;;0.66;100.00
16806;BME280;8520;50.102;20.010;2023-04-03T02:46:42;98582.19;;;0.38;100.00
16806;BME280;8520;50.102;20.010;2023-04-03T02:49:10;98596.34;;;0.57;100.00
16806;BME280;8520;50.102;20.010;2023-04-03T02:51:39;98607.66;;;0.52;100.00
16806;BME280;8520;50.102;20.010;2023-04-03T02:54:08;98597.97;;;0.51;100.00
16806;BME280;8520;50.102;20.010;2023-04-03T02:56:40;98617.78;;;0.48;100.00
16806;BME280;8520;50.102;20.010;2023-04-03T02:59:08;98596.31;;;0.23;100.00
16806;BME280;8520;50.102;20.010;2023-04-03T03:01:38;98594.78;;;0.22;100.00
16806;BME280;8520;50.102;20.010;2023-04-03T03:04:07;98589.28;;;0.29;100.00
16806;BME280;8520;50.102;20.010;2023-04-03T03:06:35;98605.97;;;0.65;100.00
16806;BME280;8520;50.102;20.010;2023-04-03T03:09:03;98610.22;;;0.66;100.00
16806;BME280;8520;50.102;20.010;2023-04-03T03:11:32;98596.72;;;0.21;100.00
16806;BME280;8520;50.102;20.010;2023-04-03T03:14:03;98590.41;;;0.31;100.00
16806;BME280;8520;50.102;20.010;2023-04-03T03:16:32;98616.34;;;0.36;100.00
16806;BME280;8520;50.102;20.010;2023-04-03T03:19:00;98607.16;;;0.23;100.00
16806;BME280;8520;50.102;20.010;2023-04-03T03:21:28;98617.50;;;0.38;100.00
16806;BME280;8520;50.102;20.010;2023-04-03T03:23:56;98607.91;;;0.27;100.00
16806;BME280;8520;50.102;20.010;2023-04-03T03:26:26;98615.22;;;0.33;100.00
16806;BME280;8520;50.102;20.010;2023-04-03T03:28:54;98599.75;;;0.27;100.00
16806;BME280;8520;50.102;20.010;2023-04-03T03:31:24;98615.69;;;0.25;100.00
16806;BME280;8520;50.102;20.010;2023-04-03T03:33:52;98582.09;;;0.08;100.00
16806;BME280;8520;50.102;20.010;2023-04-03T03:36:21;98613.13;;;0.48;100.00
16806;BME280;8520;50.102;20.010;2023-04-03T03:38:49;98601.94;;;0.42;100.00
16806;BME280;8520;50.102;20.010;2023-04-03T03:41:17;98610.31;;;0.55;100.00
16806;BME280;8520;50.102;20.010;2023-04-03T03:43:46;98626.84;;;0.34;100.00
16806;BME280;8520;50.102;20.010;2023-04-03T03:46:15;98604.81;;;0.28;100.00
16806;BME280;8520;50.102;20.010;2023-04-03T03:48:45;98634.66;;;0.28;100.00
16806;BME280;8520;50.102;20.010;2023-04-03T03:51:14;98621.81;;;0.32;100.00
16806;BME280;8520;50.102;20.010;2023-04-03T03:53:43;98644.50;;;0.11;100.00
16806;BME280;8520;50.102;20.010;2023-04-03T03:56:15;98634.78;;;0.14;100.00
16806;BME280;8520;50.102;20.010;2023-04-03T03:58:44;98614.13;;;0.24;100.00
16806;BME280;8520;50.102;20.010;2023-04-03T04:01:13;98645.91;;;0.27;100.00
16806;BME280;8520;50.102;20.010;2023-04-03T04:03:47;98645.38;;;0.01;100.00
16806;BME280;8520;50.102;20.010;2023-04-03T04:06:19;98648.59;;;0.30;100.00
16806;BME280;8520;50.102;20.010;2023-04-03T04:08:48;98630.53;;;0.13;100.00
16806;BME280;8520;50.102;20.010;2023-04-03T04:11:16;98645.63;;;0.14;100.00
16806;BME280;8520;50.102;20.010;2023-04-03T04:13:46;98643.63;;;0.22;100.00
16806;BME280;8520;50.102;20.010;2023-04-03T04:16:16;98648.91;;;0.36;99.94
16806;BME280;8520;50.102;20.010;2023-04-03T04:18:44;98651.47;;;0.54;99.05
16806;BME280;8520;50.102;20.010;2023-04-03T04:21:14;98657.16;;;0.25;100.00
16806;BME280;8520;50.102;20.010;2023-04-03T04:23:43;98654.44;;;0.29;100.00
16806;BME280;8520;50.102;20.010;2023-04-03T04:26:13;98645.22;;;0.16;99.65
16806;BME280;8520;50.102;20.010;2023-04-03T04:28:41;98642.34;;;-0.11;99.82
16806;BME280;8520;50.102;20.010;2023-04-03T04:31:09;98661.56;;;0.12;98.92
16806;BME280;8520;50.102;20.010;2023-04-03T04:33:37;98659.25;;;0.07;98.36
16806;BME280;8520;50.102;20.010;2023-04-03T04:36:08;98657.59;;;0.20;98.15
16806;BME280;8520;50.102;20.010;2023-04-03T04:38:38;98664.53;;;0.25;97.98
16806;BME280;8520;50.102;20.010;2023-04-03T04:41:06;98660.88;;;0.01;98.69
16806;BME280;8520;50.102;20.010;2023-04-03T04:43:35;98661.09;;;0.17;98.10
16806;BME280;8520;50.102;20.010;2023-04-03T04:46:05;98674.03;;;-0.01;98.97
16806;BME280;8520;50.102;20.010;2023-04-03T04:48:39;98679.47;;;0.02;99.20
16806;BME280;8520;50.102;20.010;2023-04-03T04:51:09;98679.34;;;0.17;98.64
16806;BME280;8520;50.102;20.010;2023-04-03T04:53:40;98667.66;;;-0.29;98.96
16806;BME280;8520;50.102;20.010;2023-04-03T04:56:11;98663.47;;;0.15;99.52
16806;BME280;8520;50.102;20.010;2023-04-03T04:58:41;98655.28;;;-0.33;99.52
16806;BME280;8520;50.102;20.010;2023-04-03T05:01:10;98684.44;;;0.07;98.85
16806;BME280;8520;50.102;20.010;2023-04-03T05:03:50;98675.91;;;0.09;98.46
16806;BME280;8520;50.102;20.010;2023-04-03T05:06:19;98651.28;;;-0.18;98.58
16806;BME280;8520;50.102;20.010;2023-04-03T05:08:49;98665.97;;;-0.08;98.36
16806;BME280;8520;50.102;20.010;2023-04-03T05:11:17;98688.00;;;-0.03;97.77
16806;BME280;8520;50.102;20.010;2023-04-03T05:13:51;98696.25;;;0.35;97.53
16806;BME280;8520;50.102;20.010;2023-04-03T05:16:21;98680.19;;;0.10;96.63
16806;BME280;8520;50.102;20.010;2023-04-03T05:18:49;98707.56;;;0.30;96.61
16806;BME280;8520;50.102;20.010;2023-04-03T05:21:21;98708.91;;;0.00;97.84
16806;BME280;8520;50.102;20.010;2023-04-03T05:23:52;98701.31;;;0.33;97.94
16806;BME280;8520;50.102;20.010;2023-04-03T05:26:20;98700.03;;;0.48;96.84
16806;BME280;8520;50.102;20.010;2023-04-03T05:28:50;98673.47;;;-0.27;97.28
16806;BME280;8520;50.102;20.010;2023-04-03T05:31:19;98711.28;;;-0.05;96.67
16806;BME280;8520;50.102;20.010;2023-04-03T05:33:48;98714.66;;;0.13;95.98
16806;BME280;8520;50.102;20.010;2023-04-03T05:36:17;98701.22;;;-0.05;96.37
16806;BME280;8520;50.102;20.010;2023-04-03T05:38:52;98706.34;;;-0.21;95.55
16806;BME280;8520;50.102;20.010;2023-04-03T05:41:24;98698.56;;;-0.19;95.88
16806;BME280;8520;50.102;20.010;2023-04-03T05:43:52;98666.94;;;-0.40;96.26
16806;BME280;8520;50.102;20.010;2023-04-03T05:46:23;98708.31;;;-0.29;95.54
16806;BME280;8520;50.102;20.010;2023-04-03T05:48:54;98715.31;;;-0.31;96.41
16806;BME280;8520;50.102;20.010;2023-04-03T05:51:29;98722.69;;;-0.32;96.40
16806;BME280;8520;50.102;20.010;2023-04-03T05:54:11;98706.47;;;-0.43;96.30
16806;BME280;8520;50.102;20.010;2023-04-03T05:56:41;98708.47;;;-0.54;97.82
16806;BME280;8520;50.102;20.010;2023-04-03T05:59:09;98753.50;;;-0.81;97.72
16806;BME280;8520;50.102;20.010;2023-04-03T06:01:38;98701.06;;;-0.46;97.22
16806;BME280;8520;50.102;20.010;2023-04-03T06:04:06;98696.50;;;-0.60;97.17
16806;BME280;8520;50.102;20.010;2023-04-03T06:06:44;98718.91;;;-0.45;96.68
16806;BME280;8520;50.102;20.010;2023-04-03T06:09:15;98707.94;;;-0.27;95.01
16806;BME280;8520;50.102;20.010;2023-04-03T06:11:44;98727.78;;;-0.41;94.28
16806;BME280;8520;50.102;20.010;2023-04-03T06:14:13;98728.16;;;-0.39;94.36
16806;BME280;8520;50.102;20.010;2023-04-03T06:16:41;98740.63;;;-0.56;93.35
16806;BME280;8520;50.102;20.010;2023-04-03T06:19:11;98748.78;;;-0.66;93.81
16806;BME280;8520;50.102;20.010;2023-04-03T06:21:45;98739.41;;;-0.44;93.25
16806;BME280;8520;50.102;20.010;2023-04-03T06:24:16;98727.34;;;-0.32;91.91
16806;BME280;8520;50.102;20.010;2023-04-03T06:26:45;98720.09;;;-0.53;91.10
16806;BME280;8520;50.102;20.010;2023-04-03T06:29:15;98746.69;;;-0.30;91.47
16806;BME280;8520;50.102;20.010;2023-04-03T06:31:43;98750.44;;;-0.10;91.02
16806;BME280;8520;50.102;20.010;2023-04-03T06:34:12;98749.78;;;-0.25;88.98
16806;BME280;8520;50.102;20.010;2023-04-03T06:36:40;98738.47;;;-0.12;88.83
16806;BME280;8520;50.102;20.010;2023-04-03T06:39:09;98758.13;;;0.06;87.72
16806;BME280;8520;50.102;20.010;2023-04-03T06:41:42;98753.25;;;0.35;87.08
16806;BME280;8520;50.102;20.010;2023-04-03T06:44:10;98768.38;;;0.36;84.88
16806;BME280;8520;50.102;20.010;2023-04-03T06:46:40;98778.28;;;0.05;86.03
16806;BME280;8520;50.102;20.010;2023-04-03T06:49:09;98764.84;;;-0.17;85.10
16806;BME280;8520;50.102;20.010;2023-04-03T06:51:37;98778.47;;;-0.31;84.50
16806;BME280;8520;50.102;20.010;2023-04-03T06:54:06;98774.72;;;0.15;84.50
16806;BME280;8520;50.102;20.010;2023-04-03T06:56:35;98757.41;;;-0.09;85.47
16806;BME280;8520;50.102;20.010;2023-04-03T06:59:04;98774.50;;;-0.08;85.33
16806;BME280;8520;50.102;20.010;2023-04-03T07:01:33;98777.66;;;-0.17;84.45
16806;BME280;8520;50.102;20.010;2023-04-03T07:04:01;98769.44;;;-0.10;85.32
16806;BME280;8520;50.102;20.010;2023-04-03T07:06:29;98775.78;;;0.32;85.52
16806;BME280;8520;50.102;20.010;2023-04-03T07:08:58;98780.84;;;0.26;84.34
16806;BME280;8520;50.102;20.010;2023-04-03T07:11:26;98768.94;;;0.13;84.90
16806;BME280;8520;50.102;20.010;2023-04-03T07:13:54;98787.81;;;-0.43;84.08
16806;BME280;8520;50.102;20.010;2023-04-03T07:16:24;98778.00;;;-0.15;84.85
16806;BME280;8520;50.102;20.010;2023-04-03T07:18:52;98749.31;;;-0.12;84.16
16806;BME280;8520;50.102;20.010;2023-04-03T07:21:20;98803.56;;;-0.12;82.69
16806;BME280;8520;50.102;20.010;2023-04-03T07:23:48;98768.28;;;-0.09;82.90
16806;BME280;8520;50.102;20.010;2023-04-03T07:26:17;98788.13;;;-0.23;82.08
16806;BME280;8520;50.102;20.010;2023-04-03T07:28:47;98783.00;;;-0.06;81.92
16806;BME280;8520;50.102;20.010;2023-04-03T07:31:16;98805.97;;;0.41;82.37
16806;BME280;8520;50.102;20.010;2023-04-03T07:33:46;98780.84;;;0.26;81.10
16806;BME280;8520;50.102;20.010;2023-04-03T07:36:17;98804.72;;;0.56;80.17
16806;BME280;8520;50.102;20.010;2023-04-03T07:38:46;98815.59;;;0.97;80.64
16806;BME280;8520;50.102;20.010;2023-04-03T07:41:15;98814.88;;;0.41;78.99
16806;BME280;8520;50.102;20.010;2023-04-03T07:43:44;98815.84;;;0.69;79.70
16806;BME280;8520;50.102;20.010;2023-04-03T07:46:13;98820.88;;;0.70;79.16
16806;BME280;8520;50.102;20.010;2023-04-03T07:48:41;98798.88;;;1.74;77.86
16806;BME280;8520;50.102;20.010;2023-04-03T07:51:11;98837.25;;;1.08;77.71
16806;BME280;8520;50.102;20.010;2023-04-03T07:53:39;98836.94;;;0.51;79.00
16806;BME280;8520;50.102;20.010;2023-04-03T07:56:08;98836.13;;;0.54;78.49
16806;BME280;8520;50.102;20.010;2023-04-03T07:58:37;98806.44;;;1.60;77.32
16806;BME280;8520;50.102;20.010;2023-04-03T08:01:05;98822.66;;;0.39;77.79
16806;BME280;8520;50.102;20.010;2023-04-03T08:03:34;98818.81;;;1.30;78.67
16806;BME280;8520;50.102;20.010;2023-04-03T08:06:04;98845.91;;;0.48;77.79
16806;BME280;8520;50.102;20.010;2023-04-03T08:08:42;98810.34;;;1.21;77.97
16806;BME280;8520;50.102;20.010;2023-04-03T08:11:11;98825.31;;;0.98;76.35
16806;BME280;8520;50.102;20.010;2023-04-03T08:13:39;98855.38;;;0.74;78.62
16806;BME280;8520;50.102;20.010;2023-04-03T08:16:13;98839.28;;;0.49;80.06
16806;BME280;8520;50.102;20.010;2023-04-03T08:18:42;98811.81;;;0.39;79.41
16806;BME280;8520;50.102;20.010;2023-04-03T08:21:11;98814.00;;;0.55;79.90
16806;BME280;8520;50.102;20.010;2023-04-03T08:23:41;98825.25;;;1.06;79.62
16806;BME280;8520;50.102;20.010;2023-04-03T08:26:11;98796.53;;;0.60;79.33
16806;BME280;8520;50.102;20.010;2023-04-03T08:28:40;98825.13;;;0.71;79.13
16806;BME280;8520;50.102;20.010;2023-04-03T08:31:10;98848.56;;;0.51;78.78
16806;BME280;8520;50.102;20.010;2023-04-03T08:33:39;98832.44;;;0.26;80.15
16806;BME280;8520;50.102;20.010;2023-04-03T08:36:16;98850.06;;;0.59;79.93
16806;BME280;8520;50.102;20.010;2023-04-03T08:38:47;98855.16;;;0.54;79.83
16806;BME280;8520;50.102;20.010;2023-04-03T08:41:19;98877.81;;;0.29;79.29
16806;BME280;8520;50.102;20.010;2023-04-03T08:43:56;98837.66;;;-0.08;79.77
16806;BME280;8520;50.102;20.010;2023-04-03T08:46:35;98842.47;;;0.88;78.75
16806;BME280;8520;50.102;20.010;2023-04-03T08:49:11;98826.44;;;0.53;77.81
16806;BME280;8520;50.102;20.010;2023-04-03T08:51:46;98854.22;;;1.19;75.72
16806;BME280;8520;50.102;20.010;2023-04-03T08:54:26;98835.38;;;1.77;76.36
16806;BME280;8520;50.102;20.010;2023-04-03T08:56:56;98866.81;;;1.44;76.62
16806;BME280;8520;50.102;20.010;2023-04-03T08:59:29;98855.50;;;0.59;77.99
16806;BME280;8520;50.102;20.010;2023-04-03T09:02:03;98855.69;;;0.31;79.49
16806;BME280;8520;50.102;20.010;2023-04-03T09:04:33;98888.75;;;0.08;79.70
16806;BME280;8520;50.102;20.010;2023-04-03T09:07:04;98867.50;;;-0.04;79.45
16806;BME280;8520;50.102;20.010;2023-04-03T09:09:39;98906.22;;;0.10;78.37
16806;BME280;8520;50.102;20.010;2023-04-03T09:12:17;98865.94;;;0.68;77.96
16806;BME280;8520;50.102;20.010;2023-04-03T09:14:55;98854.44;;;0.42;76.96
16806;BME280;8520;50.102;20.010;2023-04-03T09:17:35;98869.69;;;0.19;78.58
16806;BME280;8520;50.102;20.010;2023-04-03T09:20:14;98899.94;;;0.24;80.17
16806;BME280;8520;50.102;20.010;2023-04-03T09:22:46;98893.41;;;0.07;81.95
16806;BME280;8520;50.102;20.010;2023-04-03T09:25:22;98865.06;;;0.16;81.04
16806;BME280;8520;50.102;20.010;2023-04-03T09:27:53;98891.81;;;0.83;78.35
16806;BME280;8520;50.102;20.010;2023-04-03T09:30:23;98899.97;;;0.13;79.16
16806;BME280;8520;50.102;20.010;2023-04-03T09:32:53;98880.59;;;0.11;79.27
16806;BME280;8520;50.102;20.010;2023-04-03T09:35:24;98907.66;;;0.92;77.54
16806;BME280;8520;50.102;20.010;2023-04-03T09:38:19;98906.22;;;0.77;79.51
16806;BME280;8520;50.102;20.010;2023-04-03T09:40:51;98910.69;;;0.42;78.88
16806;BME280;8520;50.102;20.010;2023-04-03T09:43:32;98891.06;;;1.27;76.36
16806;BME280;8520;50.102;20.010;2023-04-03T09:46:25;98900.94;;;1.07;75.50
16806;BME280;8520;50.102;20.010;2023-04-03T09:48:56;98869.25;;;0.90;74.62
16806;BME280;8520;50.102;20.010;2023-04-03T09:51:36;98879.66;;;0.47;76.04
16806;BME280;8520;50.102;20.010;2023-04-03T09:57:12;98918.41;;;1.10;75.28
16806;BME280;8520;50.102;20.010;2023-04-03T09:59:45;98917.41;;;0.86;75.23
16806;BME280;8520;50.102;20.010;2023-04-03T10:02:24;98916.97;;;0.32;75.90
16806;BME280;8520;50.102;20.010;2023-04-03T10:04:57;98918.53;;;0.26;76.38
16806;BME280;8520;50.102;20.010;2023-04-03T10:07:34;98935.22;;;0.94;75.64
16806;BME280;8520;50.102;20.010;2023-04-03T10:10:17;98922.53;;;0.77;75.99
16806;BME280;8520;50.102;20.010;2023-04-03T10:12:48;98901.00;;;1.82;73.66
16806;BME280;8520;50.102;20.010;2023-04-03T10:15:17;98912.38;;;2.08;70.04
16806;BME280;8520;50.102;20.010;2023-04-03T10:17:54;98900.75;;;1.70;72.38
16806;BME280;8520;50.102;20.010;2023-04-03T10:20:33;98932.22;;;1.71;73.00
16806;BME280;8520;50.102;20.010;2023-04-03T10:23:15;98924.00;;;0.88;75.18
16806;BME280;8520;50.102;20.010;2023-04-03T10:25:52;98926.63;;;1.47;73.21
16806;BME280;8520;50.102;20.010;2023-04-03T10:28:31;98925.00;;;1.53;73.87
16806;BME280;8520;50.102;20.010;2023-04-03T10:31:10;98947.91;;;1.11;74.99
